sensor_id;sensor_type;location;lat;lon;timestamp;P1;durP1;ratioP1;P2;durP2;ratioP2
9388;SDS011;4734;52.778;6.798;2022-11-25T00:00:08;12.90;;;3.63;;
9388;SDS011;4734;52.778;6.798;2022-11-25T00:02:54;9.33;;;3.77;;
9388;SDS011;4734;52.778;6.798;2022-11-25T00:05:41;13.17;;;3.60;;
9388;SDS011;4734;52.778;6.798;2022-11-25T00:08:28;12.93;;;5.07;;
9388;SDS011;4734;52.778;6.798;2022-11-25T00:11:14;14.27;;;3.40;;
9388;SDS011;4734;52.778;6.798;2022-11-25T00:14:00;13.83;;;3.83;;
9388;SDS011;4734;52.778;6.798;2022-11-25T00:16:47;12.17;;;3.83;;
9388;SDS011;4734;52.778;6.798;2022-11-25T00:19:32;5.93;;;2.90;;
9388;SDS011;4734;52.778;6.798;2022-11-25T00:22:19;11.03;;;3.40;;
9388;SDS011;4734;52.778;6.798;2022-11-25T00:25:05;8.67;;;3.13;;
9388;SDS011;4734;52.778;6.798;2022-11-25T00:27:51;10.67;;;3.37;;
9388;SDS011;4734;52.778;6.798;2022-11-25T00:30:37;10.33;;;3.63;;
9388;SDS011;4734;52.778;6.798;2022-11-25T00:33:22;13.53;;;3.40;;
9388;SDS011;4734;52.778;6.798;2022-11-25T00:36:12;7.83;;;3.17;;
9388;SDS011;4734;52.778;6.798;2022-11-25T00:39:02;10.43;;;3.37;;
9388;SDS011;4734;52.778;6.798;2022-11-25T00:41:49;9.57;;;3.77;;
9388;SDS011;4734;52.778;6.798;2022-11-25T00:44:52;10.70;;;3.33;;
9388;SDS011;4734;52.778;6.798;2022-11-25T00:47:38;10.33;;;3.20;;
9388;SDS011;4734;52.778;6.798;2022-11-25T00:50:23;10.80;;;3.30;;
9388;SDS011;4734;52.778;6.798;2022-11-25T00:53:09;11.53;;;3.57;;
9388;SDS011;4734;52.778;6.798;2022-11-25T00:56:01;8.70;;;3.30;;
9388;SDS011;4734;52.778;6.798;2022-11-25T00:58:59;11.47;;;3.20;;
9388;SDS011;4734;52.778;6.798;2022-11-25T01:01:45;8.17;;;3.47;;
9388;SDS011;4734;52.778;6.798;2022-11-25T01:04:31;12.93;;;3.43;;
9388;SDS011;4734;52.778;6.798;2022-11-25T01:07:17;8.90;;;3.13;;
9388;SDS011;4734;52.778;6.798;2022-11-25T01:10:04;13.07;;;3.80;;
9388;SDS011;4734;52.778;6.798;2022-11-25T01:12:52;13.23;;;3.97;;
9388;SDS011;4734;52.778;6.798;2022-11-25T01:15:38;9.70;;;3.30;;
9388;SDS011;4734;52.778;6.798;2022-11-25T01:18:24;10.60;;;3.07;;
9388;SDS011;4734;52.778;6.798;2022-11-25T01:21:10;11.80;;;3.50;;
9388;SDS011;4734;52.778;6.798;2022-11-25T01:23:57;8.70;;;3.30;;
9388;SDS011;4734;52.778;6.798;2022-11-25T01:26:44;14.50;;;3.87;;
9388;SDS011;4734;52.778;6.798;2022-11-25T01:29:32;13.43;;;3.90;;
9388;SDS011;4734;52.778;6.798;2022-11-25T01:32:17;14.53;;;4.00;;
9388;SDS011;4734;52.778;6.798;2022-11-25T01:35:04;7.80;;;3.10;;
9388;SDS011;4734;52.778;6.798;2022-11-25T01:37:53;8.70;;;3.30;;
9388;SDS011;4734;52.778;6.798;2022-11-25T01:40:39;10.40;;;3.47;;
9388;SDS011;4734;52.778;6.798;2022-11-25T01:43:25;9.20;;;3.67;;
9388;SDS011;4734;52.778;6.798;2022-11-25T01:46:16;7.90;;;3.50;;
9388;SDS011;4734;52.778;6.798;2022-11-25T01:49:10;8.60;;;2.93;;
9388;SDS011;4734;52.778;6.798;2022-11-25T01:52:01;10.73;;;3.20;;
9388;SDS011;4734;52.778;6.798;2022-11-25T01:54:53;9.00;;;2.83;;
9388;SDS011;4734;52.778;6.798;2022-11-25T01:57:44;11.53;;;3.93;;
9388;SDS011;4734;52.778;6.798;2022-11-25T02:00:35;15.03;;;3.13;;
9388;SDS011;4734;52.778;6.798;2022-11-25T02:03:26;14.70;;;3.40;;
9388;SDS011;4734;52.778;6.798;2022-11-25T02:06:16;11.43;;;3.20;;
9388;SDS011;4734;52.778;6.798;2022-11-25T02:09:07;9.57;;;3.53;;
9388;SDS011;4734;52.778;6.798;2022-11-25T02:11:52;8.40;;;3.20;;
9388;SDS011;4734;52.778;6.798;2022-11-25T02:14:38;10.17;;;2.93;;
9388;SDS011;4734;52.778;6.798;2022-11-25T02:17:25;17.30;;;3.87;;
9388;SDS011;4734;52.778;6.798;2022-11-25T02:20:13;7.47;;;2.87;;
9388;SDS011;4734;52.778;6.798;2022-11-25T02:23:02;8.17;;;3.20;;
9388;SDS011;4734;52.778;6.798;2022-11-25T02:25:56;9.37;;;3.23;;
9388;SDS011;4734;52.778;6.798;2022-11-25T02:28:42;9.20;;;3.43;;
9388;SDS011;4734;52.778;6.798;2022-11-25T02:31:27;11.17;;;3.60;;
9388;SDS011;4734;52.778;6.798;2022-11-25T02:34:13;11.90;;;3.20;;
9388;SDS011;4734;52.778;6.798;2022-11-25T02:36:59;9.43;;;3.27;;
9388;SDS011;4734;52.778;6.798;2022-11-25T02:39:46;10.80;;;2.97;;
9388;SDS011;4734;52.778;6.798;2022-11-25T02:42:34;9.93;;;3.23;;
9388;SDS011;4734;52.778;6.798;2022-11-25T02:45:20;8.80;;;3.43;;
9388;SDS011;4734;52.778;6.798;2022-11-25T02:48:12;11.27;;;3.90;;
9388;SDS011;4734;52.778;6.798;2022-11-25T02:50:58;16.20;;;3.50;;
9388;SDS011;4734;52.778;6.798;2022-11-25T02:53:44;11.77;;;3.77;;
9388;SDS011;4734;52.778;6.798;2022-11-25T02:56:31;8.07;;;3.20;;
9388;SDS011;4734;52.778;6.798;2022-11-25T02:59:20;11.13;;;3.37;;
9388;SDS011;4734;52.778;6.798;2022-11-25T03:02:05;15.00;;;4.03;;
9388;SDS011;4734;52.778;6.798;2022-11-25T03:04:51;11.70;;;3.73;;
9388;SDS011;4734;52.778;6.798;2022-11-25T03:07:36;11.60;;;4.07;;
9388;SDS011;4734;52.778;6.798;2022-11-25T03:10:22;12.80;;;3.70;;
9388;SDS011;4734;52.778;6.798;2022-11-25T03:13:09;11.17;;;3.93;;
9388;SDS011;4734;52.778;6.798;2022-11-25T03:15:56;11.70;;;3.67;;
9388;SDS011;4734;52.778;6.798;2022-11-25T03:18:42;8.90;;;3.33;;
9388;SDS011;4734;52.778;6.798;2022-11-25T03:21:28;9.40;;;3.27;;
9388;SDS011;4734;52.778;6.798;2022-11-25T03:24:14;8.13;;;3.03;;
9388;SDS011;4734;52.778;6.798;2022-11-25T03:26:59;9.57;;;3.23;;
9388;SDS011;4734;52.778;6.798;2022-11-25T03:29:45;11.17;;;4.07;;
9388;SDS011;4734;52.778;6.798;2022-11-25T03:32:33;15.50;;;3.77;;
9388;SDS011;4734;52.778;6.798;2022-11-25T03:35:19;13.20;;;3.80;;
9388;SDS011;4734;52.778;6.798;2022-11-25T03:38:05;9.97;;;3.10;;
9388;SDS011;4734;52.778;6.798;2022-11-25T03:40:51;16.27;;;4.20;;
9388;SDS011;4734;52.778;6.798;2022-11-25T03:43:38;9.20;;;3.57;;
9388;SDS011;4734;52.778;6.798;2022-11-25T03:46:24;9.97;;;3.77;;
9388;SDS011;4734;52.778;6.798;2022-11-25T03:49:11;13.00;;;4.20;;
9388;SDS011;4734;52.778;6.798;2022-11-25T03:51:57;11.30;;;3.77;;
9388;SDS011;4734;52.778;6.798;2022-11-25T03:54:43;11.70;;;3.80;;
9388;SDS011;4734;52.778;6.798;2022-11-25T03:57:29;11.30;;;3.60;;
9388;SDS011;4734;52.778;6.798;2022-11-25T04:00:15;10.70;;;4.10;;
9388;SDS011;4734;52.778;6.798;2022-11-25T04:03:01;10.47;;;3.83;;
9388;SDS011;4734;52.778;6.798;2022-11-25T04:05:48;8.93;;;3.43;;
9388;SDS011;4734;52.778;6.798;2022-11-25T04:08:34;11.93;;;3.67;;
9388;SDS011;4734;52.778;6.798;2022-11-25T04:11:19;8.13;;;3.60;;
9388;SDS011;4734;52.778;6.798;2022-11-25T04:14:26;9.13;;;3.83;;
9388;SDS011;4734;52.778;6.798;2022-11-25T04:17:11;11.27;;;4.10;;
9388;SDS011;4734;52.778;6.798;2022-11-25T04:20:00;11.63;;;4.33;;
9388;SDS011;4734;52.778;6.798;2022-11-25T04:22:47;10.93;;;3.87;;
9388;SDS011;4734;52.778;6.798;2022-11-25T04:25:33;14.20;;;4.50;;
9388;SDS011;4734;52.778;6.798;2022-11-25T04:28:18;9.70;;;3.87;;
9388;SDS011;4734;52.778;6.798;2022-11-25T04:31:04;8.13;;;3.27;;
9388;SDS011;4734;52.778;6.798;2022-11-25T04:33:51;11.73;;;3.60;;
9388;SDS011;4734;52.778;6.798;2022-11-25T04:36:37;11.33;;;3.93;;
9388;SDS011;4734;52.778;6.798;2022-11-25T04:39:24;11.57;;;3.60;;
9388;SDS011;4734;52.778;6.798;2022-11-25T04:42:10;12.03;;;3.53;;
9388;SDS011;4734;52.778;6.798;2022-11-25T04:45:14;10.67;;;3.90;;
9388;SDS011;4734;52.778;6.798;2022-11-25T04:48:01;12.43;;;3.90;;
9388;SDS011;4734;52.778;6.798;2022-11-25T04:50:47;10.13;;;4.00;;
9388;SDS011;4734;52.778;6.798;2022-11-25T04:53:33;13.67;;;3.37;;
9388;SDS011;4734;52.778;6.798;2022-11-25T04:56:20;16.53;;;3.77;;
9388;SDS011;4734;52.778;6.798;2022-11-25T04:59:06;11.60;;;3.60;;
9388;SDS011;4734;52.778;6.798;2022-11-25T05:02:11;17.30;;;3.77;;
9388;SDS011;4734;52.778;6.798;2022-11-25T05:04:58;12.37;;;3.70;;
9388;SDS011;4734;52.778;6.798;2022-11-25T05:07:45;11.97;;;4.20;;
9388;SDS011;4734;52.778;6.798;2022-11-25T05:10:30;10.70;;;3.70;;
9388;SDS011;4734;52.778;6.798;2022-11-25T05:13:17;10.90;;;4.37;;
9388;SDS011;4734;52.778;6.798;2022-11-25T05:16:03;9.87;;;4.10;;
9388;SDS011;4734;52.778;6.798;2022-11-25T05:18:50;16.77;;;4.40;;
9388;SDS011;4734;52.778;6.798;2022-11-25T05:21:36;12.67;;;4.77;;
9388;SDS011;4734;52.778;6.798;2022-11-25T05:24:22;14.07;;;4.37;;
9388;SDS011;4734;52.778;6.798;2022-11-25T05:27:08;13.47;;;4.73;;
9388;SDS011;4734;52.778;6.798;2022-11-25T05:29:56;16.80;;;4.80;;
9388;SDS011;4734;52.778;6.798;2022-11-25T05:32:41;12.20;;;4.07;;
9388;SDS011;4734;52.778;6.798;2022-11-25T05:35:27;18.43;;;4.73;;
9388;SDS011;4734;52.778;6.798;2022-11-25T05:38:13;13.20;;;4.57;;
9388;SDS011;4734;52.778;6.798;2022-11-25T05:40:59;12.13;;;4.10;;
9388;SDS011;4734;52.778;6.798;2022-11-25T05:43:46;13.80;;;4.80;;
9388;SDS011;4734;52.778;6.798;2022-11-25T05:46:33;15.97;;;5.20;;
9388;SDS011;4734;52.778;6.798;2022-11-25T05:49:19;15.87;;;5.80;;
9388;SDS011;4734;52.778;6.798;2022-11-25T05:52:05;15.67;;;5.33;;
9388;SDS011;4734;52.778;6.798;2022-11-25T05:54:52;16.10;;;5.30;;
9388;SDS011;4734;52.778;6.798;2022-11-25T05:57:40;11.67;;;5.80;;
9388;SDS011;4734;52.778;6.798;2022-11-25T06:00:26;17.17;;;6.07;;
9388;SDS011;4734;52.778;6.798;2022-11-25T06:03:13;14.03;;;5.90;;
9388;SDS011;4734;52.778;6.798;2022-11-25T06:05:59;17.37;;;6.10;;
9388;SDS011;4734;52.778;6.798;2022-11-25T06:08:45;16.50;;;5.60;;
9388;SDS011;4734;52.778;6.798;2022-11-25T06:11:31;12.50;;;5.50;;
9388;SDS011;4734;52.778;6.798;2022-11-25T06:14:17;13.30;;;6.10;;
9388;SDS011;4734;52.778;6.798;2022-11-25T06:17:03;15.77;;;6.80;;
9388;SDS011;4734;52.778;6.798;2022-11-25T06:19:50;16.93;;;6.80;;
9388;SDS011;4734;52.778;6.798;2022-11-25T06:22:35;13.30;;;6.10;;
9388;SDS011;4734;52.778;6.798;2022-11-25T06:25:21;18.70;;;6.88;;
9388;SDS011;4734;52.778;6.798;2022-11-25T06:28:07;15.27;;;5.83;;
9388;SDS011;4734;52.778;6.798;2022-11-25T06:30:53;14.50;;;6.00;;
9388;SDS011;4734;52.778;6.798;2022-11-25T06:33:39;18.60;;;6.40;;
9388;SDS011;4734;52.778;6.798;2022-11-25T06:36:26;20.20;;;6.23;;
9388;SDS011;4734;52.778;6.798;2022-11-25T06:39:11;15.67;;;5.50;;
9388;SDS011;4734;52.778;6.798;2022-11-25T06:41:57;15.03;;;5.43;;
9388;SDS011;4734;52.778;6.798;2022-11-25T06:44:43;17.13;;;5.57;;
9388;SDS011;4734;52.778;6.798;2022-11-25T06:47:28;10.00;;;5.30;;
9388;SDS011;4734;52.778;6.798;2022-11-25T06:50:14;14.33;;;5.40;;
9388;SDS011;4734;52.778;6.798;2022-11-25T06:53:02;12.80;;;4.53;;
9388;SDS011;4734;52.778;6.798;2022-11-25T06:55:47;17.97;;;4.97;;
9388;SDS011;4734;52.778;6.798;2022-11-25T06:58:33;11.80;;;4.30;;
9388;SDS011;4734;52.778;6.798;2022-11-25T07:01:20;11.80;;;5.13;;
9388;SDS011;4734;52.778;6.798;2022-11-25T07:04:07;8.03;;;4.17;;
9388;SDS011;4734;52.778;6.798;2022-11-25T07:06:53;9.80;;;4.60;;
9388;SDS011;4734;52.778;6.798;2022-11-25T07:09:39;11.90;;;5.33;;
9388;SDS011;4734;52.778;6.798;2022-11-25T07:12:25;15.80;;;4.53;;
9388;SDS011;4734;52.778;6.798;2022-11-25T07:15:10;15.80;;;4.73;;
9388;SDS011;4734;52.778;6.798;2022-11-25T07:17:56;8.77;;;4.37;;
9388;SDS011;4734;52.778;6.798;2022-11-25T07:20:42;12.47;;;4.37;;
9388;SDS011;4734;52.778;6.798;2022-11-25T07:23:27;10.87;;;4.10;;
9388;SDS011;4734;52.778;6.798;2022-11-25T07:26:15;16.67;;;4.30;;
9388;SDS011;4734;52.778;6.798;2022-11-25T07:29:02;12.20;;;4.40;;
9388;SDS011;4734;52.778;6.798;2022-11-25T07:31:51;13.13;;;4.47;;
9388;SDS011;4734;52.778;6.798;2022-11-25T07:34:36;9.27;;;4.17;;
9388;SDS011;4734;52.778;6.798;2022-11-25T07:37:22;9.77;;;3.87;;
9388;SDS011;4734;52.778;6.798;2022-11-25T07:40:08;14.33;;;4.30;;
9388;SDS011;4734;52.778;6.798;2022-11-25T07:42:55;8.80;;;4.10;;
9388;SDS011;4734;52.778;6.798;2022-11-25T07:45:41;11.80;;;3.77;;
9388;SDS011;4734;52.778;6.798;2022-11-25T07:48:27;11.13;;;4.33;;
9388;SDS011;4734;52.778;6.798;2022-11-25T07:51:15;10.47;;;4.13;;
9388;SDS011;4734;52.778;6.798;2022-11-25T07:54:02;10.60;;;4.13;;
9388;SDS011;4734;52.778;6.798;2022-11-25T07:56:50;7.50;;;3.47;;
9388;SDS011;4734;52.778;6.798;2022-11-25T07:59:37;8.93;;;3.70;;
9388;SDS011;4734;52.778;6.798;2022-11-25T08:02:24;13.97;;;4.43;;
9388;SDS011;4734;52.778;6.798;2022-11-25T08:05:10;10.70;;;4.33;;
9388;SDS011;4734;52.778;6.798;2022-11-25T08:07:56;8.70;;;3.80;;
9388;SDS011;4734;52.778;6.798;2022-11-25T08:10:42;8.50;;;4.10;;
9388;SDS011;4734;52.778;6.798;2022-11-25T08:13:27;9.83;;;3.83;;
9388;SDS011;4734;52.778;6.798;2022-11-25T08:16:16;7.63;;;3.70;;
9388;SDS011;4734;52.778;6.798;2022-11-25T08:19:04;8.73;;;3.70;;
9388;SDS011;4734;52.778;6.798;2022-11-25T08:21:52;11.17;;;3.93;;
9388;SDS011;4734;52.778;6.798;2022-11-25T08:24:38;9.20;;;3.90;;
9388;SDS011;4734;52.778;6.798;2022-11-25T08:27:24;10.00;;;4.03;;
9388;SDS011;4734;52.778;6.798;2022-11-25T08:30:10;11.73;;;3.90;;
9388;SDS011;4734;52.778;6.798;2022-11-25T08:32:57;9.03;;;3.83;;
9388;SDS011;4734;52.778;6.798;2022-11-25T08:35:43;9.80;;;3.83;;
9388;SDS011;4734;52.778;6.798;2022-11-25T08:38:37;13.53;;;4.30;;
9388;SDS011;4734;52.778;6.798;2022-11-25T08:41:24;9.60;;;3.80;;
9388;SDS011;4734;52.778;6.798;2022-11-25T08:44:12;14.57;;;4.40;;
9388;SDS011;4734;52.778;6.798;2022-11-25T08:46:57;10.13;;;4.33;;
9388;SDS011;4734;52.778;6.798;2022-11-25T08:49:44;13.10;;;4.57;;
9388;SDS011;4734;52.778;6.798;2022-11-25T08:52:30;8.07;;;4.10;;
9388;SDS011;4734;52.778;6.798;2022-11-25T08:55:16;10.97;;;4.00;;
9388;SDS011;4734;52.778;6.798;2022-11-25T08:58:03;7.67;;;4.20;;
9388;SDS011;4734;52.778;6.798;2022-11-25T09:00:52;7.07;;;4.37;;
9388;SDS011;4734;52.778;6.798;2022-11-25T09:03:40;9.73;;;4.47;;
9388;SDS011;4734;52.778;6.798;2022-11-25T09:06:31;10.60;;;4.60;;
9388;SDS011;4734;52.778;6.798;2022-11-25T09:09:17;9.33;;;4.53;;
9388;SDS011;4734;52.778;6.798;2022-11-25T09:12:03;7.77;;;4.70;;
9388;SDS011;4734;52.778;6.798;2022-11-25T09:14:49;8.07;;;4.63;;
9388;SDS011;4734;52.778;6.798;2022-11-25T09:17:35;6.67;;;4.70;;
9388;SDS011;4734;52.778;6.798;2022-11-25T09:20:20;8.20;;;4.30;;
9388;SDS011;4734;52.778;6.798;2022-11-25T09:23:07;14.40;;;5.67;;
9388;SDS011;4734;52.778;6.798;2022-11-25T09:25:53;7.23;;;4.40;;
9388;SDS011;4734;52.778;6.798;2022-11-25T09:28:41;10.70;;;5.10;;
9388;SDS011;4734;52.778;6.798;2022-11-25T09:31:26;11.57;;;5.20;;
9388;SDS011;4734;52.778;6.798;2022-11-25T09:34:12;9.30;;;4.80;;
9388;SDS011;4734;52.778;6.798;2022-11-25T09:36:58;8.57;;;5.03;;
9388;SDS011;4734;52.778;6.798;2022-11-25T09:39:45;11.47;;;5.00;;
9388;SDS011;4734;52.778;6.798;2022-11-25T09:42:33;9.70;;;4.93;;
9388;SDS011;4734;52.778;6.798;2022-11-25T09:45:46;6.63;;;4.70;;
9388;SDS011;4734;52.778;6.798;2022-11-25T09:48:59;8.60;;;5.00;;
9388;SDS011;4734;52.778;6.798;2022-11-25T09:51:56;7.70;;;4.90;;
9388;SDS011;4734;52.778;6.798;2022-11-25T09:54:52;8.83;;;4.13;;
9388;SDS011;4734;52.778;6.798;2022-11-25T09:57:46;8.27;;;4.63;;
9388;SDS011;4734;52.778;6.798;2022-11-25T10:00:39;5.70;;;4.17;;
9388;SDS011;4734;52.778;6.798;2022-11-25T10:03:29;8.07;;;4.30;;
9388;SDS011;4734;52.778;6.798;2022-11-25T10:06:20;7.77;;;4.17;;
9388;SDS011;4734;52.778;6.798;2022-11-25T10:09:09;7.47;;;4.40;;
9388;SDS011;4734;52.778;6.798;2022-11-25T10:12:00;9.27;;;4.10;;
9388;SDS011;4734;52.778;6.798;2022-11-25T10:14:50;11.97;;;4.20;;
9388;SDS011;4734;52.778;6.798;2022-11-25T10:17:41;7.10;;;4.10;;
9388;SDS011;4734;52.778;6.798;2022-11-25T10:20:33;8.63;;;4.00;;
9388;SDS011;4734;52.778;6.798;2022-11-25T10:23:23;6.77;;;3.23;;
9388;SDS011;4734;52.778;6.798;2022-11-25T10:26:12;13.57;;;4.53;;
9388;SDS011;4734;52.778;6.798;2022-11-25T10:29:05;6.97;;;3.90;;
9388;SDS011;4734;52.778;6.798;2022-11-25T10:32:09;7.40;;;3.20;;
9388;SDS011;4734;52.778;6.798;2022-11-25T10:35:04;6.50;;;3.45;;
9388;SDS011;4734;52.778;6.798;2022-11-25T10:38:00;9.70;;;3.57;;
9388;SDS011;4734;52.778;6.798;2022-11-25T10:40:49;7.13;;;3.23;;
9388;SDS011;4734;52.778;6.798;2022-11-25T10:43:36;6.23;;;3.30;;
9388;SDS011;4734;52.778;6.798;2022-11-25T10:46:25;6.43;;;3.40;;
9388;SDS011;4734;52.778;6.798;2022-11-25T10:49:19;6.23;;;3.10;;
9388;SDS011;4734;52.778;6.798;2022-11-25T10:52:14;8.23;;;3.55;;
9388;SDS011;4734;52.778;6.798;2022-11-25T10:55:10;6.80;;;3.47;;
9388;SDS011;4734;52.778;6.798;2022-11-25T10:57:58;6.80;;;3.30;;
9388;SDS011;4734;52.778;6.798;2022-11-25T11:01:04;6.53;;;3.13;;
9388;SDS011;4734;52.778;6.798;2022-11-25T11:04:03;6.70;;;3.22;;
9388;SDS011;4734;52.778;6.798;2022-11-25T11:07:06;8.10;;;3.75;;
9388;SDS011;4734;52.778;6.798;2022-11-25T11:09:53;7.53;;;3.13;;
9388;SDS011;4734;52.778;6.798;2022-11-25T11:12:55;7.97;;;3.42;;
9388;SDS011;4734;52.778;6.798;2022-11-25T11:15:43;7.10;;;2.97;;
9388;SDS011;4734;52.778;6.798;2022-11-25T11:18:38;6.75;;;3.33;;
9388;SDS011;4734;52.778;6.798;2022-11-25T11:21:30;6.38;;;2.75;;
9388;SDS011;4734;52.778;6.798;2022-11-25T11:24:24;8.02;;;3.47;;
9388;SDS011;4734;52.778;6.798;2022-11-25T11:27:16;7.90;;;2.90;;
9388;SDS011;4734;52.778;6.798;2022-11-25T11:30:09;9.18;;;2.78;;
9388;SDS011;4734;52.778;6.798;2022-11-25T11:33:27;8.32;;;3.47;;
9388;SDS011;4734;52.778;6.798;2022-11-25T11:36:21;6.78;;;3.00;;
9388;SDS011;4734;52.778;6.798;2022-11-25T11:39:22;7.53;;;2.92;;
9388;SDS011;4734;52.778;6.798;2022-11-25T11:42:49;3.88;;;2.55;;
9388;SDS011;4734;52.778;6.798;2022-11-25T11:45:50;8.43;;;3.05;;
9388;SDS011;4734;52.778;6.798;2022-11-25T11:48:49;7.57;;;2.90;;
9388;SDS011;4734;52.778;6.798;2022-11-25T11:51:46;5.95;;;2.75;;
9388;SDS011;4734;52.778;6.798;2022-11-25T11:54:42;7.15;;;3.20;;
9388;SDS011;4734;52.778;6.798;2022-11-25T11:57:31;7.43;;;3.08;;
9388;SDS011;4734;52.778;6.798;2022-11-25T12:00:24;7.38;;;2.90;;
9388;SDS011;4734;52.778;6.798;2022-11-25T12:03:16;9.18;;;3.28;;
9388;SDS011;4734;52.778;6.798;2022-11-25T12:06:05;7.45;;;2.78;;
9388;SDS011;4734;52.778;6.798;2022-11-25T12:08:57;8.88;;;3.08;;
9388;SDS011;4734;52.778;6.798;2022-11-25T12:11:48;6.93;;;2.85;;
9388;SDS011;4734;52.778;6.798;2022-11-25T12:14:38;4.65;;;2.50;;
9388;SDS011;4734;52.778;6.798;2022-11-25T12:17:29;9.65;;;2.88;;
9388;SDS011;4734;52.778;6.798;2022-11-25T12:20:23;8.10;;;2.60;;
9388;SDS011;4734;52.778;6.798;2022-11-25T12:23:17;4.53;;;2.40;;
9388;SDS011;4734;52.778;6.798;2022-11-25T12:26:12;7.50;;;3.20;;
9388;SDS011;4734;52.778;6.798;2022-11-25T12:29:04;5.20;;;2.38;;
9388;SDS011;4734;52.778;6.798;2022-11-25T12:31:57;6.25;;;2.70;;
9388;SDS011;4734;52.778;6.798;2022-11-25T12:34:49;7.53;;;3.05;;
9388;SDS011;4734;52.778;6.798;2022-11-25T12:37:43;10.70;;;3.47;;
9388;SDS011;4734;52.778;6.798;2022-11-25T12:40:35;11.75;;;3.13;;
9388;SDS011;4734;52.778;6.798;2022-11-25T12:43:34;7.10;;;2.30;;
9388;SDS011;4734;52.778;6.798;2022-11-25T12:46:28;10.30;;;2.85;;
9388;SDS011;4734;52.778;6.798;2022-11-25T12:49:20;6.50;;;2.55;;
9388;SDS011;4734;52.778;6.798;2022-11-25T12:52:10;7.22;;;2.53;;
9388;SDS011;4734;52.778;6.798;2022-11-25T12:55:26;12.27;;;2.70;;
9388;SDS011;4734;52.778;6.798;2022-11-25T13:05:02;6.80;;;2.42;;
9388;SDS011;4734;52.778;6.798;2022-11-25T13:08:25;9.98;;;2.88;;
9388;SDS011;4734;52.778;6.798;2022-11-25T13:11:33;10.80;;;3.42;;
9388;SDS011;4734;52.778;6.798;2022-11-25T13:14:48;10.10;;;3.03;;
9388;SDS011;4734;52.778;6.798;2022-11-25T13:17:47;9.25;;;2.83;;
9388;SDS011;4734;52.778;6.798;2022-11-25T13:20:43;10.88;;;2.80;;
9388;SDS011;4734;52.778;6.798;2022-11-25T13:26:48;9.35;;;3.45;;
9388;SDS011;4734;52.778;6.798;2022-11-25T13:32:39;10.68;;;3.10;;
9388;SDS011;4734;52.778;6.798;2022-11-25T13:35:29;11.30;;;3.03;;
9388;SDS011;4734;52.778;6.798;2022-11-25T13:38:35;13.00;;;3.30;;
9388;SDS011;4734;52.778;6.798;2022-11-25T13:41:48;10.48;;;3.00;;
9388;SDS011;4734;52.778;6.798;2022-11-25T13:44:48;7.57;;;2.67;;
9388;SDS011;4734;52.778;6.798;2022-11-25T13:47:36;13.32;;;2.95;;
9388;SDS011;4734;52.778;6.798;2022-11-25T13:50:24;7.00;;;2.63;;
9388;SDS011;4734;52.778;6.798;2022-11-25T13:53:17;10.27;;;2.80;;
9388;SDS011;4734;52.778;6.798;2022-11-25T13:56:23;9.73;;;3.05;;
9388;SDS011;4734;52.778;6.798;2022-11-25T13:59:18;8.63;;;2.22;;
9388;SDS011;4734;52.778;6.798;2022-11-25T14:02:34;11.05;;;2.92;;
9388;SDS011;4734;52.778;6.798;2022-11-25T14:05:40;9.82;;;2.88;;
9388;SDS011;4734;52.778;6.798;2022-11-25T14:08:36;9.13;;;2.60;;
9388;SDS011;4734;52.778;6.798;2022-11-25T14:11:32;8.27;;;2.97;;
9388;SDS011;4734;52.778;6.798;2022-11-25T14:17:57;8.48;;;3.03;;
9388;SDS011;4734;52.778;6.798;2022-11-25T14:21:15;10.52;;;2.95;;
9388;SDS011;4734;52.778;6.798;2022-11-25T14:24:34;8.80;;;2.83;;
9388;SDS011;4734;52.778;6.798;2022-11-25T14:27:23;6.32;;;2.55;;
9388;SDS011;4734;52.778;6.798;2022-11-25T14:30:12;10.20;;;3.20;;
9388;SDS011;4734;52.778;6.798;2022-11-25T14:33:02;11.85;;;3.17;;
9388;SDS011;4734;52.778;6.798;2022-11-25T14:35:52;9.52;;;3.03;;
9388;SDS011;4734;52.778;6.798;2022-11-25T14:38:46;7.18;;;2.83;;
9388;SDS011;4734;52.778;6.798;2022-11-25T14:41:34;8.55;;;3.10;;
9388;SDS011;4734;52.778;6.798;2022-11-25T14:44:23;11.43;;;3.38;;
9388;SDS011;4734;52.778;6.798;2022-11-25T14:47:12;11.10;;;2.75;;
9388;SDS011;4734;52.778;6.798;2022-11-25T14:50:00;14.52;;;3.53;;
9388;SDS011;4734;52.778;6.798;2022-11-25T14:52:47;8.68;;;2.95;;
9388;SDS011;4734;52.778;6.798;2022-11-25T14:55:33;8.55;;;2.50;;
9388;SDS011;4734;52.778;6.798;2022-11-25T14:58:20;12.50;;;3.30;;
9388;SDS011;4734;52.778;6.798;2022-11-25T15:01:08;13.95;;;2.95;;
9388;SDS011;4734;52.778;6.798;2022-11-25T15:04:03;10.70;;;3.10;;
9388;SDS011;4734;52.778;6.798;2022-11-25T15:06:53;7.03;;;2.70;;
9388;SDS011;4734;52.778;6.798;2022-11-25T15:09:43;8.68;;;3.28;;
9388;SDS011;4734;52.778;6.798;2022-11-25T15:12:29;8.07;;;2.50;;
9388;SDS011;4734;52.778;6.798;2022-11-25T15:15:17;11.98;;;3.15;;
9388;SDS011;4734;52.778;6.798;2022-11-25T15:18:03;7.82;;;2.80;;
9388;SDS011;4734;52.778;6.798;2022-11-25T15:20:52;8.38;;;2.40;;
9388;SDS011;4734;52.778;6.798;2022-11-25T15:23:42;7.97;;;2.65;;
9388;SDS011;4734;52.778;6.798;2022-11-25T15:26:28;12.57;;;3.03;;
9388;SDS011;4734;52.778;6.798;2022-11-25T15:29:16;9.80;;;2.63;;
9388;SDS011;4734;52.778;6.798;2022-11-25T15:32:01;11.93;;;2.78;;
9388;SDS011;4734;52.778;6.798;2022-11-25T15:34:47;9.13;;;2.78;;
9388;SDS011;4734;52.778;6.798;2022-11-25T15:37:34;11.88;;;3.00;;
9388;SDS011;4734;52.778;6.798;2022-11-25T15:40:33;7.55;;;2.10;;
9388;SDS011;4734;52.778;6.798;2022-11-25T15:43:23;15.57;;;3.33;;
9388;SDS011;4734;52.778;6.798;2022-11-25T15:46:12;6.68;;;2.80;;
9388;SDS011;4734;52.778;6.798;2022-11-25T15:48:59;10.85;;;3.30;;
9388;SDS011;4734;52.778;6.798;2022-11-25T15:51:49;15.13;;;3.53;;
9388;SDS011;4734;52.778;6.798;2022-11-25T15:54:38;9.30;;;2.95;;
9388;SDS011;4734;52.778;6.798;2022-11-25T15:57:28;10.60;;;3.10;;
9388;SDS011;4734;52.778;6.798;2022-11-25T16:00:17;9.98;;;3.13;;
9388;SDS011;4734;52.778;6.798;2022-11-25T16:03:15;15.02;;;3.22;;
9388;SDS011;4734;52.778;6.798;2022-11-25T16:06:16;10.88;;;3.20;;
9388;SDS011;4734;52.778;6.798;2022-11-25T16:09:15;9.23;;;2.88;;
9388;SDS011;4734;52.778;6.798;2022-11-25T16:12:05;16.65;;;3.38;;
9388;SDS011;4734;52.778;6.798;2022-11-25T16:14:54;13.10;;;3.00;;
9388;SDS011;4734;52.778;6.798;2022-11-25T16:17:40;9.68;;;2.95;;
9388;SDS011;4734;52.778;6.798;2022-11-25T16:20:26;8.43;;;2.45;;
9388;SDS011;4734;52.778;6.798;2022-11-25T16:23:12;6.90;;;2.50;;
9388;SDS011;4734;52.778;6.798;2022-11-25T16:26:01;4.45;;;2.28;;
9388;SDS011;4734;52.778;6.798;2022-11-25T16:28:49;5.43;;;2.40;;
9388;SDS011;4734;52.778;6.798;2022-11-25T16:31:39;5.70;;;2.33;;
9388;SDS011;4734;52.778;6.798;2022-11-25T16:34:25;6.15;;;2.58;;
9388;SDS011;4734;52.778;6.798;2022-11-25T16:37:12;5.37;;;2.20;;
9388;SDS011;4734;52.778;6.798;2022-11-25T16:39:57;5.85;;;2.15;;
9388;SDS011;4734;52.778;6.798;2022-11-25T16:42:44;5.97;;;2.20;;
9388;SDS011;4734;52.778;6.798;2022-11-25T16:45:31;6.35;;;2.30;;
9388;SDS011;4734;52.778;6.798;2022-11-25T16:48:20;6.65;;;2.28;;
9388;SDS011;4734;52.778;6.798;2022-11-25T16:51:07;5.43;;;2.85;;
9388;SDS011;4734;52.778;6.798;2022-11-25T16:53:57;8.93;;;2.97;;
9388;SDS011;4734;52.778;6.798;2022-11-25T16:56:43;7.53;;;2.80;;
9388;SDS011;4734;52.778;6.798;2022-11-25T16:59:33;7.80;;;3.05;;
9388;SDS011;4734;52.778;6.798;2022-11-25T17:02:21;7.80;;;2.80;;
9388;SDS011;4734;52.778;6.798;2022-11-25T17:05:15;8.43;;;3.53;;
9388;SDS011;4734;52.778;6.798;2022-11-25T17:08:02;7.93;;;3.00;;
9388;SDS011;4734;52.778;6.798;2022-11-25T17:10:48;8.30;;;3.20;;
9388;SDS011;4734;52.778;6.798;2022-11-25T17:13:35;8.07;;;3.00;;
9388;SDS011;4734;52.778;6.798;2022-11-25T17:16:26;7.87;;;2.93;;
9388;SDS011;4734;52.778;6.798;2022-11-25T17:19:14;10.00;;;3.63;;
9388;SDS011;4734;52.778;6.798;2022-11-25T17:22:02;7.43;;;3.33;;
9388;SDS011;4734;52.778;6.798;2022-11-25T17:24:50;6.43;;;3.00;;
9388;SDS011;4734;52.778;6.798;2022-11-25T17:27:37;6.17;;;3.17;;
9388;SDS011;4734;52.778;6.798;2022-11-25T17:30:24;9.23;;;3.73;;
9388;SDS011;4734;52.778;6.798;2022-11-25T17:33:12;9.73;;;3.73;;
9388;SDS011;4734;52.778;6.798;2022-11-25T17:36:00;11.97;;;3.70;;
9388;SDS011;4734;52.778;6.798;2022-11-25T17:38:47;8.33;;;3.50;;
9388;SDS011;4734;52.778;6.798;2022-11-25T17:41:40;7.73;;;3.40;;